DuBois Regional Airport Dubois US
ICAO: KDUJ
IATA: DUJ
Category: Medium
Scheduled Services: Yes

Elevation: 1817 ft
TransAlt. 18000 ft.

Airport Communications:
ASOS:119.025
CLEVELAND CNTR:126.72
CTAF:123
ALTOONA RDO:122.2
UNICOM:123

KDUJ Zoom In..

Runways:

(A) RW 07 length 5503 ft width 100 ft
---- / hdg 72

(B) RW 25 length 5503 ft width 100 ft
ILS 109.90 / hdg 252

Location; KDUJ
Day. 21 / Time. 05.53 Zulu
* Altimeter: 29.99
* Temperature: 20° c. 68°f.
* Wind from: 130° Speed 09 kn with Gusts up to 16 kn.
Dewpoint: 14° c.
Visibility: 10 Statute Miles.
Clouds: Few 6500 ft.
Clouds: Broken 1000 ft.

KDUJ 210553Z AUTO 13009G16KT 10SM FEW065 BKN100 20/14 A2999 RMK AO2 SLP140 T02000139 10233 20200 58004


Wind From 130°
Speed 09 kn.

 
 
jpsmedia.com for Web Design worldairports.se 2018   terms of use